sensor_id;sensor_type;location;lat;lon;timestamp;temperature;humidity
4526;DHT22;2275;52.208;8.804;2022-12-18T00:00:42;-9.40;99.90
4526;DHT22;2275;52.208;8.804;2022-12-18T00:03:09;-9.40;99.90
4526;DHT22;2275;52.208;8.804;2022-12-18T00:05:36;-9.50;99.90
4526;DHT22;2275;52.208;8.804;2022-12-18T00:08:03;-9.50;99.90
4526;DHT22;2275;52.208;8.804;2022-12-18T00:10:30;-9.50;99.90
4526;DHT22;2275;52.208;8.804;2022-12-18T00:12:58;-9.50;99.90
4526;DHT22;2275;52.208;8.804;2022-12-18T00:15:25;-9.50;99.90
4526;DHT22;2275;52.208;8.804;2022-12-18T00:17:52;-9.50;99.90
4526;DHT22;2275;52.208;8.804;2022-12-18T00:20:19;-9.50;99.90
4526;DHT22;2275;52.208;8.804;2022-12-18T00:22:47;-9.50;99.90
4526;DHT22;2275;52.208;8.804;2022-12-18T00:25:14;-9.40;99.90
4526;DHT22;2275;52.208;8.804;2022-12-18T00:27:40;-9.40;99.90
4526;DHT22;2275;52.208;8.804;2022-12-18T00:30:08;-9.30;99.90
4526;DHT22;2275;52.208;8.804;2022-12-18T00:32:35;-9.30;99.90
4526;DHT22;2275;52.208;8.804;2022-12-18T00:35:03;-9.30;99.90
4526;DHT22;2275;52.208;8.804;2022-12-18T00:37:30;-9.40;99.90
4526;DHT22;2275;52.208;8.804;2022-12-18T00:39:58;-9.50;99.90
4526;DHT22;2275;52.208;8.804;2022-12-18T00:42:24;-9.50;99.90
4526;DHT22;2275;52.208;8.804;2022-12-18T00:44:57;-9.60;99.90
4526;DHT22;2275;52.208;8.804;2022-12-18T00:47:25;-9.60;99.90
4526;DHT22;2275;52.208;8.804;2022-12-18T00:49:52;-9.60;99.90
4526;DHT22;2275;52.208;8.804;2022-12-18T00:52:19;-9.60;99.90
4526;DHT22;2275;52.208;8.804;2022-12-18T00:54:46;-9.60;99.90
4526;DHT22;2275;52.208;8.804;2022-12-18T00:57:13;-9.60;99.90
4526;DHT22;2275;52.208;8.804;2022-12-18T00:59:40;-9.60;99.90
4526;DHT22;2275;52.208;8.804;2022-12-18T01:02:06;-9.60;99.90
4526;DHT22;2275;52.208;8.804;2022-12-18T01:04:34;-9.70;99.90
4526;DHT22;2275;52.208;8.804;2022-12-18T01:07:01;-9.70;99.90
4526;DHT22;2275;52.208;8.804;2022-12-18T01:09:28;-9.80;99.90
4526;DHT22;2275;52.208;8.804;2022-12-18T01:11:55;-9.80;99.90
4526;DHT22;2275;52.208;8.804;2022-12-18T01:14:22;-9.80;99.90
4526;DHT22;2275;52.208;8.804;2022-12-18T01:16:49;-9.80;99.90
4526;DHT22;2275;52.208;8.804;2022-12-18T01:19:16;-9.70;99.90
4526;DHT22;2275;52.208;8.804;2022-12-18T01:21:43;-9.70;99.90
4526;DHT22;2275;52.208;8.804;2022-12-18T01:24:10;-9.80;99.90
4526;DHT22;2275;52.208;8.804;2022-12-18T01:26:37;-9.80;99.90
4526;DHT22;2275;52.208;8.804;2022-12-18T01:29:04;-9.80;99.90
4526;DHT22;2275;52.208;8.804;2022-12-18T01:31:32;-9.80;99.90
4526;DHT22;2275;52.208;8.804;2022-12-18T01:34:00;-9.90;99.90
4526;DHT22;2275;52.208;8.804;2022-12-18T01:36:26;-9.90;99.90
4526;DHT22;2275;52.208;8.804;2022-12-18T01:38:52;-9.90;99.90
4526;DHT22;2275;52.208;8.804;2022-12-18T01:41:20;-9.80;99.90
4526;DHT22;2275;52.208;8.804;2022-12-18T01:44:01;-9.80;99.90
4526;DHT22;2275;52.208;8.804;2022-12-18T01:46:27;-9.80;99.90
4526;DHT22;2275;52.208;8.804;2022-12-18T01:48:57;-9.70;99.90
4526;DHT22;2275;52.208;8.804;2022-12-18T01:51:24;-9.70;99.90
4526;DHT22;2275;52.208;8.804;2022-12-18T01:53:51;-9.60;99.90
4526;DHT22;2275;52.208;8.804;2022-12-18T01:56:19;-9.50;99.90
4526;DHT22;2275;52.208;8.804;2022-12-18T01:58:50;-9.50;99.90
4526;DHT22;2275;52.208;8.804;2022-12-18T02:01:15;-9.50;99.90
4526;DHT22;2275;52.208;8.804;2022-12-18T02:03:43;-9.60;99.90
4526;DHT22;2275;52.208;8.804;2022-12-18T02:06:13;-9.70;99.90
4526;DHT22;2275;52.208;8.804;2022-12-18T02:09:12;-9.70;99.90
4526;DHT22;2275;52.208;8.804;2022-12-18T02:11:25;-9.80;99.90
4526;DHT22;2275;52.208;8.804;2022-12-18T02:16:46;-9.80;99.90
4526;DHT22;2275;52.208;8.804;2022-12-18T02:19:37;-9.90;99.90
4526;DHT22;2275;52.208;8.804;2022-12-18T02:22:11;-9.90;99.90
4526;DHT22;2275;52.208;8.804;2022-12-18T02:24:41;-9.90;99.90
4526;DHT22;2275;52.208;8.804;2022-12-18T02:27:05;-9.90;99.90
4526;DHT22;2275;52.208;8.804;2022-12-18T02:29:50;-9.90;99.90
4526;DHT22;2275;52.208;8.804;2022-12-18T02:32:17;-10.00;99.90
4526;DHT22;2275;52.208;8.804;2022-12-18T02:34:42;-10.00;99.90
4526;DHT22;2275;52.208;8.804;2022-12-18T02:37:12;-10.10;99.90
4526;DHT22;2275;52.208;8.804;2022-12-18T02:39:38;-10.10;99.90
4526;DHT22;2275;52.208;8.804;2022-12-18T02:42:04;-10.10;99.90
4526;DHT22;2275;52.208;8.804;2022-12-18T02:44:42;-10.10;99.90
4526;DHT22;2275;52.208;8.804;2022-12-18T02:47:09;-10.10;99.90
4526;DHT22;2275;52.208;8.804;2022-12-18T02:50:11;-10.00;99.90
4526;DHT22;2275;52.208;8.804;2022-12-18T02:53:33;-10.10;99.90
4526;DHT22;2275;52.208;8.804;2022-12-18T02:57:58;-10.20;99.90
4526;DHT22;2275;52.208;8.804;2022-12-18T03:00:31;-10.20;99.90
4526;DHT22;2275;52.208;8.804;2022-12-18T03:02:59;-10.20;99.90
4526;DHT22;2275;52.208;8.804;2022-12-18T03:05:34;-10.20;99.90
4526;DHT22;2275;52.208;8.804;2022-12-18T03:08:06;-10.20;99.90
4526;DHT22;2275;52.208;8.804;2022-12-18T03:10:32;-10.20;99.90
4526;DHT22;2275;52.208;8.804;2022-12-18T03:13:04;-10.10;99.90
4526;DHT22;2275;52.208;8.804;2022-12-18T03:15:37;-10.10;99.90
4526;DHT22;2275;52.208;8.804;2022-12-18T03:18:04;-10.10;99.90
4526;DHT22;2275;52.208;8.804;2022-12-18T03:20:31;-10.10;99.90
4526;DHT22;2275;52.208;8.804;2022-12-18T03:23:01;-10.10;99.90
4526;DHT22;2275;52.208;8.804;2022-12-18T03:25:27;-10.10;99.90
4526;DHT22;2275;52.208;8.804;2022-12-18T03:27:54;-10.10;99.90
4526;DHT22;2275;52.208;8.804;2022-12-18T03:30:21;-10.20;99.90
4526;DHT22;2275;52.208;8.804;2022-12-18T03:32:53;-10.20;99.90
4526;DHT22;2275;52.208;8.804;2022-12-18T03:35:21;-10.20;99.90
4526;DHT22;2275;52.208;8.804;2022-12-18T03:37:46;-10.20;99.90
4526;DHT22;2275;52.208;8.804;2022-12-18T03:40:13;-10.30;99.90
4526;DHT22;2275;52.208;8.804;2022-12-18T03:42:48;-10.20;99.90
4526;DHT22;2275;52.208;8.804;2022-12-18T03:45:48;-10.20;99.90
4526;DHT22;2275;52.208;8.804;2022-12-18T03:48:17;-10.20;99.90
4526;DHT22;2275;52.208;8.804;2022-12-18T03:50:51;-10.20;99.90
4526;DHT22;2275;52.208;8.804;2022-12-18T03:53:34;-10.20;99.90
4526;DHT22;2275;52.208;8.804;2022-12-18T03:55:59;-10.30;99.90
4526;DHT22;2275;52.208;8.804;2022-12-18T03:58:26;-10.30;99.90
4526;DHT22;2275;52.208;8.804;2022-12-18T04:00:54;-10.30;99.90
4526;DHT22;2275;52.208;8.804;2022-12-18T04:03:20;-10.30;99.90
4526;DHT22;2275;52.208;8.804;2022-12-18T04:05:47;-10.30;99.90
4526;DHT22;2275;52.208;8.804;2022-12-18T04:08:14;-10.20;99.90
4526;DHT22;2275;52.208;8.804;2022-12-18T04:10:41;-10.20;99.90
4526;DHT22;2275;52.208;8.804;2022-12-18T04:13:08;-10.30;99.90
4526;DHT22;2275;52.208;8.804;2022-12-18T04:15:35;-10.30;99.90
4526;DHT22;2275;52.208;8.804;2022-12-18T04:18:02;-10.20;99.90
4526;DHT22;2275;52.208;8.804;2022-12-18T04:20:29;-10.20;99.90
4526;DHT22;2275;52.208;8.804;2022-12-18T04:22:56;-10.20;99.90
4526;DHT22;2275;52.208;8.804;2022-12-18T04:25:24;-10.30;99.90
4526;DHT22;2275;52.208;8.804;2022-12-18T04:27:51;-10.30;99.90
4526;DHT22;2275;52.208;8.804;2022-12-18T04:30:18;-10.30;99.90
4526;DHT22;2275;52.208;8.804;2022-12-18T04:32:45;-10.30;99.90
4526;DHT22;2275;52.208;8.804;2022-12-18T04:35:12;-10.30;99.90
4526;DHT22;2275;52.208;8.804;2022-12-18T04:37:44;-10.30;99.90
4526;DHT22;2275;52.208;8.804;2022-12-18T04:40:12;-10.30;99.90
4526;DHT22;2275;52.208;8.804;2022-12-18T04:42:39;-10.40;99.90
4526;DHT22;2275;52.208;8.804;2022-12-18T04:45:07;-10.40;99.90
4526;DHT22;2275;52.208;8.804;2022-12-18T04:47:34;-10.40;99.90
4526;DHT22;2275;52.208;8.804;2022-12-18T04:50:01;-10.40;99.90
4526;DHT22;2275;52.208;8.804;2022-12-18T04:54:58;-10.40;99.90
4526;DHT22;2275;52.208;8.804;2022-12-18T04:57:26;-10.40;99.90
4526;DHT22;2275;52.208;8.804;2022-12-18T04:59:53;-10.40;99.90
4526;DHT22;2275;52.208;8.804;2022-12-18T05:02:20;-10.40;99.90
4526;DHT22;2275;52.208;8.804;2022-12-18T05:04:47;-10.40;99.90
4526;DHT22;2275;52.208;8.804;2022-12-18T05:07:14;-10.40;99.90
4526;DHT22;2275;52.208;8.804;2022-12-18T05:09:41;-10.40;99.90
4526;DHT22;2275;52.208;8.804;2022-12-18T05:12:08;-10.30;99.90
4526;DHT22;2275;52.208;8.804;2022-12-18T05:14:36;-10.40;99.90
4526;DHT22;2275;52.208;8.804;2022-12-18T05:17:03;-10.40;99.90
4526;DHT22;2275;52.208;8.804;2022-12-18T05:19:30;-10.40;99.90
4526;DHT22;2275;52.208;8.804;2022-12-18T05:21:57;-10.40;99.90
4526;DHT22;2275;52.208;8.804;2022-12-18T05:24:24;-10.50;99.90
4526;DHT22;2275;52.208;8.804;2022-12-18T05:26:50;-10.50;99.90
4526;DHT22;2275;52.208;8.804;2022-12-18T05:29:17;-10.60;99.90
4526;DHT22;2275;52.208;8.804;2022-12-18T05:31:45;-10.70;99.90
4526;DHT22;2275;52.208;8.804;2022-12-18T05:34:12;-10.70;99.90
4526;DHT22;2275;52.208;8.804;2022-12-18T05:36:38;-10.60;99.90
4526;DHT22;2275;52.208;8.804;2022-12-18T05:39:05;-10.60;99.90
4526;DHT22;2275;52.208;8.804;2022-12-18T05:41:32;-10.60;99.90
4526;DHT22;2275;52.208;8.804;2022-12-18T05:43:59;-10.60;99.90
4526;DHT22;2275;52.208;8.804;2022-12-18T05:46:27;-10.70;99.90
4526;DHT22;2275;52.208;8.804;2022-12-18T05:48:54;-10.60;99.90
4526;DHT22;2275;52.208;8.804;2022-12-18T05:51:21;-10.60;99.90
4526;DHT22;2275;52.208;8.804;2022-12-18T05:53:48;-10.60;99.90
4526;DHT22;2275;52.208;8.804;2022-12-18T05:56:17;-10.60;99.90
4526;DHT22;2275;52.208;8.804;2022-12-18T05:58:43;-10.70;99.90
4526;DHT22;2275;52.208;8.804;2022-12-18T06:01:18;-10.60;99.90
4526;DHT22;2275;52.208;8.804;2022-12-18T06:03:46;-10.70;99.90
4526;DHT22;2275;52.208;8.804;2022-12-18T06:06:15;-10.70;99.90
4526;DHT22;2275;52.208;8.804;2022-12-18T06:08:41;-10.70;99.90
4526;DHT22;2275;52.208;8.804;2022-12-18T06:11:08;-10.70;99.90
4526;DHT22;2275;52.208;8.804;2022-12-18T06:13:35;-10.70;99.90
4526;DHT22;2275;52.208;8.804;2022-12-18T06:16:03;-10.70;99.90
4526;DHT22;2275;52.208;8.804;2022-12-18T06:18:29;-10.70;99.90
4526;DHT22;2275;52.208;8.804;2022-12-18T06:20:57;-10.80;99.90
4526;DHT22;2275;52.208;8.804;2022-12-18T06:23:24;-10.70;99.90
4526;DHT22;2275;52.208;8.804;2022-12-18T06:25:51;-10.70;99.90
4526;DHT22;2275;52.208;8.804;2022-12-18T06:28:19;-10.70;99.90
4526;DHT22;2275;52.208;8.804;2022-12-18T06:30:46;-10.70;99.90
4526;DHT22;2275;52.208;8.804;2022-12-18T06:33:13;-10.70;99.90
4526;DHT22;2275;52.208;8.804;2022-12-18T06:35:40;-10.70;99.90
4526;DHT22;2275;52.208;8.804;2022-12-18T06:38:07;-10.60;99.90
4526;DHT22;2275;52.208;8.804;2022-12-18T06:40:36;-10.60;99.90
4526;DHT22;2275;52.208;8.804;2022-12-18T06:43:01;-10.60;99.90
4526;DHT22;2275;52.208;8.804;2022-12-18T06:45:28;-10.60;99.90
4526;DHT22;2275;52.208;8.804;2022-12-18T06:47:56;-10.60;99.90
4526;DHT22;2275;52.208;8.804;2022-12-18T06:50:22;-10.60;99.90
4526;DHT22;2275;52.208;8.804;2022-12-18T06:52:49;-10.70;99.90
4526;DHT22;2275;52.208;8.804;2022-12-18T06:55:17;-10.70;99.90
4526;DHT22;2275;52.208;8.804;2022-12-18T06:57:44;-10.70;99.90
4526;DHT22;2275;52.208;8.804;2022-12-18T07:00:11;-10.70;99.90
4526;DHT22;2275;52.208;8.804;2022-12-18T07:02:38;-10.70;99.90
4526;DHT22;2275;52.208;8.804;2022-12-18T07:05:06;-10.70;99.90
4526;DHT22;2275;52.208;8.804;2022-12-18T07:07:34;-10.70;99.90
4526;DHT22;2275;52.208;8.804;2022-12-18T07:10:01;-10.70;99.90
4526;DHT22;2275;52.208;8.804;2022-12-18T07:12:28;-10.70;99.90
4526;DHT22;2275;52.208;8.804;2022-12-18T07:14:55;-10.60;99.90
4526;DHT22;2275;52.208;8.804;2022-12-18T07:17:23;-10.70;99.90
4526;DHT22;2275;52.208;8.804;2022-12-18T07:19:50;-10.60;99.90
4526;DHT22;2275;52.208;8.804;2022-12-18T07:22:17;-10.50;99.90
4526;DHT22;2275;52.208;8.804;2022-12-18T07:24:44;-10.50;99.90
4526;DHT22;2275;52.208;8.804;2022-12-18T07:27:11;-10.40;99.90
4526;DHT22;2275;52.208;8.804;2022-12-18T07:29:38;-10.30;99.90
4526;DHT22;2275;52.208;8.804;2022-12-18T07:32:05;-10.40;99.90
4526;DHT22;2275;52.208;8.804;2022-12-18T07:34:32;-10.40;99.90
4526;DHT22;2275;52.208;8.804;2022-12-18T07:36:59;-10.40;99.90
4526;DHT22;2275;52.208;8.804;2022-12-18T07:39:26;-10.40;99.90
4526;DHT22;2275;52.208;8.804;2022-12-18T07:41:53;-10.40;99.90
4526;DHT22;2275;52.208;8.804;2022-12-18T07:44:26;-10.30;99.90
4526;DHT22;2275;52.208;8.804;2022-12-18T07:46:53;-10.30;99.90
4526;DHT22;2275;52.208;8.804;2022-12-18T07:49:20;-10.30;99.90
4526;DHT22;2275;52.208;8.804;2022-12-18T07:51:47;-10.20;99.90
4526;DHT22;2275;52.208;8.804;2022-12-18T07:54:14;-10.10;99.90
4526;DHT22;2275;52.208;8.804;2022-12-18T07:56:41;-10.10;99.90
4526;DHT22;2275;52.208;8.804;2022-12-18T07:59:10;-10.10;99.90
4526;DHT22;2275;52.208;8.804;2022-12-18T08:01:37;-10.10;99.90
4526;DHT22;2275;52.208;8.804;2022-12-18T08:04:04;-10.10;99.90
4526;DHT22;2275;52.208;8.804;2022-12-18T08:06:31;-10.10;99.90
4526;DHT22;2275;52.208;8.804;2022-12-18T08:08:58;-10.10;99.90
4526;DHT22;2275;52.208;8.804;2022-12-18T08:11:26;-10.10;99.90
4526;DHT22;2275;52.208;8.804;2022-12-18T08:13:52;-10.00;99.90
4526;DHT22;2275;52.208;8.804;2022-12-18T08:16:19;-9.80;99.90
4526;DHT22;2275;52.208;8.804;2022-12-18T08:18:46;-9.80;99.90
4526;DHT22;2275;52.208;8.804;2022-12-18T08:21:15;-9.70;99.90
4526;DHT22;2275;52.208;8.804;2022-12-18T08:23:42;-9.70;99.90
4526;DHT22;2275;52.208;8.804;2022-12-18T08:26:10;-9.70;99.90
4526;DHT22;2275;52.208;8.804;2022-12-18T08:28:36;-9.60;99.90
4526;DHT22;2275;52.208;8.804;2022-12-18T08:31:03;-9.60;99.90
4526;DHT22;2275;52.208;8.804;2022-12-18T08:33:30;-9.60;99.90
4526;DHT22;2275;52.208;8.804;2022-12-18T08:35:58;-9.50;99.90
4526;DHT22;2275;52.208;8.804;2022-12-18T08:38:26;-9.50;99.90
4526;DHT22;2275;52.208;8.804;2022-12-18T08:40:59;-9.40;99.90
4526;DHT22;2275;52.208;8.804;2022-12-18T08:43:26;-9.30;99.90
4526;DHT22;2275;52.208;8.804;2022-12-18T08:45:59;-9.20;99.90
4526;DHT22;2275;52.208;8.804;2022-12-18T08:48:26;-9.20;99.90
4526;DHT22;2275;52.208;8.804;2022-12-18T08:50:57;-9.00;99.90
4526;DHT22;2275;52.208;8.804;2022-12-18T08:53:25;-8.90;99.90
4526;DHT22;2275;52.208;8.804;2022-12-18T08:55:53;-8.80;99.90
4526;DHT22;2275;52.208;8.804;2022-12-18T08:58:20;-8.70;99.90
4526;DHT22;2275;52.208;8.804;2022-12-18T09:00:47;-8.60;99.90
4526;DHT22;2275;52.208;8.804;2022-12-18T09:03:15;-8.40;99.90
4526;DHT22;2275;52.208;8.804;2022-12-18T09:05:41;-8.30;99.90
4526;DHT22;2275;52.208;8.804;2022-12-18T09:08:08;-8.10;99.90
4526;DHT22;2275;52.208;8.804;2022-12-18T09:10:41;-8.00;99.90
4526;DHT22;2275;52.208;8.804;2022-12-18T09:13:03;-7.90;99.90
4526;DHT22;2275;52.208;8.804;2022-12-18T09:15:30;-7.80;99.90
4526;DHT22;2275;52.208;8.804;2022-12-18T09:17:57;-7.60;99.90
4526;DHT22;2275;52.208;8.804;2022-12-18T09:20:24;-7.40;99.90
4526;DHT22;2275;52.208;8.804;2022-12-18T09:22:51;-7.20;99.90
4526;DHT22;2275;52.208;8.804;2022-12-18T09:25:18;-7.00;99.90
4526;DHT22;2275;52.208;8.804;2022-12-18T09:27:46;-6.70;99.90
4526;DHT22;2275;52.208;8.804;2022-12-18T09:30:13;-6.40;99.90
4526;DHT22;2275;52.208;8.804;2022-12-18T09:32:40;-6.20;99.90
4526;DHT22;2275;52.208;8.804;2022-12-18T09:35:07;-6.00;99.90
4526;DHT22;2275;52.208;8.804;2022-12-18T09:37:34;-5.80;99.90
4526;DHT22;2275;52.208;8.804;2022-12-18T09:40:01;-5.60;99.90
4526;DHT22;2275;52.208;8.804;2022-12-18T09:42:28;-5.50;99.90
4526;DHT22;2275;52.208;8.804;2022-12-18T09:44:57;-5.30;99.90
4526;DHT22;2275;52.208;8.804;2022-12-18T09:47:28;-5.20;99.90
4526;DHT22;2275;52.208;8.804;2022-12-18T09:49:58;-5.10;99.90
4526;DHT22;2275;52.208;8.804;2022-12-18T09:52:27;-5.00;99.90
4526;DHT22;2275;52.208;8.804;2022-12-18T09:54:53;-4.80;99.90
4526;DHT22;2275;52.208;8.804;2022-12-18T09:57:22;-4.70;99.90
4526;DHT22;2275;52.208;8.804;2022-12-18T09:59:51;-4.60;99.90
4526;DHT22;2275;52.208;8.804;2022-12-18T10:02:18;-4.50;99.90
4526;DHT22;2275;52.208;8.804;2022-12-18T10:04:45;-4.30;99.90
4526;DHT22;2275;52.208;8.804;2022-12-18T10:07:19;-4.20;99.90
4526;DHT22;2275;52.208;8.804;2022-12-18T10:09:53;-4.10;99.90
4526;DHT22;2275;52.208;8.804;2022-12-18T10:12:23;-3.90;99.90
4526;DHT22;2275;52.208;8.804;2022-12-18T10:15:13;-3.80;99.90
4526;DHT22;2275;52.208;8.804;2022-12-18T10:18:04;-3.60;99.90
4526;DHT22;2275;52.208;8.804;2022-12-18T10:20:33;-3.50;99.90
4526;DHT22;2275;52.208;8.804;2022-12-18T10:23:02;-3.20;99.90
4526;DHT22;2275;52.208;8.804;2022-12-18T10:25:38;-2.80;99.90
4526;DHT22;2275;52.208;8.804;2022-12-18T10:28:08;-1.60;99.90
4526;DHT22;2275;52.208;8.804;2022-12-18T10:30:34;0.20;99.90
4526;DHT22;2275;52.208;8.804;2022-12-18T10:33:02;2.10;99.90
4526;DHT22;2275;52.208;8.804;2022-12-18T10:35:29;3.60;99.90
4526;DHT22;2275;52.208;8.804;2022-12-18T10:38:06;4.30;99.90
4526;DHT22;2275;52.208;8.804;2022-12-18T10:40:31;4.50;99.90
4526;DHT22;2275;52.208;8.804;2022-12-18T10:43:12;4.10;99.90
4526;DHT22;2275;52.208;8.804;2022-12-18T10:45:32;3.00;99.90
4526;DHT22;2275;52.208;8.804;2022-12-18T10:47:59;1.70;99.90
4526;DHT22;2275;52.208;8.804;2022-12-18T10:50:30;1.10;99.90
4526;DHT22;2275;52.208;8.804;2022-12-18T10:52:58;0.70;99.90
4526;DHT22;2275;52.208;8.804;2022-12-18T10:55:25;0.50;99.90
4526;DHT22;2275;52.208;8.804;2022-12-18T10:57:51;0.30;99.90
4526;DHT22;2275;52.208;8.804;2022-12-18T11:02:58;0.20;99.90
4526;DHT22;2275;52.208;8.804;2022-12-18T11:05:30;0.20;99.90
4526;DHT22;2275;52.208;8.804;2022-12-18T11:07:56;0.30;99.90
4526;DHT22;2275;52.208;8.804;2022-12-18T11:10:35;0.40;99.90
4526;DHT22;2275;52.208;8.804;2022-12-18T11:13:15;0.40;99.90
4526;DHT22;2275;52.208;8.804;2022-12-18T11:15:39;0.40;99.90
4526;DHT22;2275;52.208;8.804;2022-12-18T11:18:14;0.30;99.90
4526;DHT22;2275;52.208;8.804;2022-12-18T11:20:34;0.30;99.90
4526;DHT22;2275;52.208;8.804;2022-12-18T11:23:03;0.20;99.90
4526;DHT22;2275;52.208;8.804;2022-12-18T11:25:30;0.20;99.90
4526;DHT22;2275;52.208;8.804;2022-12-18T11:27:58;0.20;99.90
4526;DHT22;2275;52.208;8.804;2022-12-18T11:30:30;0.10;99.90
4526;DHT22;2275;52.208;8.804;2022-12-18T11:33:03;0.10;99.90
4526;DHT22;2275;52.208;8.804;2022-12-18T11:35:34;0.10;99.90
4526;DHT22;2275;52.208;8.804;2022-12-18T11:37:59;0.00;99.90
4526;DHT22;2275;52.208;8.804;2022-12-18T11:40:41;0.00;99.90
4526;DHT22;2275;52.208;8.804;2022-12-18T11:43:10;0.00;99.90
4526;DHT22;2275;52.208;8.804;2022-12-18T11:45:38;-0.10;99.90
4526;DHT22;2275;52.208;8.804;2022-12-18T11:48:04;-0.10;99.90
4526;DHT22;2275;52.208;8.804;2022-12-18T11:51:03;-0.10;99.90
4526;DHT22;2275;52.208;8.804;2022-12-18T11:53:13;0.00;99.90
4526;DHT22;2275;52.208;8.804;2022-12-18T11:58:42;0.10;99.90
4526;DHT22;2275;52.208;8.804;2022-12-18T12:01:20;0.20;99.90
4526;DHT22;2275;52.208;8.804;2022-12-18T12:06:44;0.30;99.90
4526;DHT22;2275;52.208;8.804;2022-12-18T12:09:14;0.20;99.90
4526;DHT22;2275;52.208;8.804;2022-12-18T12:11:55;0.30;99.90
4526;DHT22;2275;52.208;8.804;2022-12-18T12:14:26;0.20;99.90
4526;DHT22;2275;52.208;8.804;2022-12-18T12:16:56;0.10;99.90
4526;DHT22;2275;52.208;8.804;2022-12-18T12:19:32;0.20;99.90
4526;DHT22;2275;52.208;8.804;2022-12-18T12:22:07;0.20;99.90
4526;DHT22;2275;52.208;8.804;2022-12-18T12:24:39;0.10;99.90
4526;DHT22;2275;52.208;8.804;2022-12-18T12:27:25;0.20;99.90
4526;DHT22;2275;52.208;8.804;2022-12-18T12:32:28;0.20;99.90
4526;DHT22;2275;52.208;8.804;2022-12-18T12:34:59;0.10;99.90
4526;DHT22;2275;52.208;8.804;2022-12-18T12:37:35;0.20;99.90
4526;DHT22;2275;52.208;8.804;2022-12-18T12:40:01;0.20;99.90
4526;DHT22;2275;52.208;8.804;2022-12-18T12:42:31;0.10;99.90
4526;DHT22;2275;52.208;8.804;2022-12-18T12:45:04;0.10;99.90
4526;DHT22;2275;52.208;8.804;2022-12-18T12:47:32;0.20;99.90
4526;DHT22;2275;52.208;8.804;2022-12-18T12:49:58;0.20;99.90
4526;DHT22;2275;52.208;8.804;2022-12-18T12:52:47;0.20;99.90
4526;DHT22;2275;52.208;8.804;2022-12-18T12:55:19;0.20;99.90
4526;DHT22;2275;52.208;8.804;2022-12-18T12:57:48;0.30;99.90
4526;DHT22;2275;52.208;8.804;2022-12-18T13:00:15;0.30;99.90
4526;DHT22;2275;52.208;8.804;2022-12-18T13:02:47;0.30;99.90
4526;DHT22;2275;52.208;8.804;2022-12-18T13:06:21;0.30;99.90
4526;DHT22;2275;52.208;8.804;2022-12-18T13:07:59;0.30;99.90
4526;DHT22;2275;52.208;8.804;2022-12-18T13:10:30;0.30;99.90
4526;DHT22;2275;52.208;8.804;2022-12-18T13:12:55;0.30;99.90
4526;DHT22;2275;52.208;8.804;2022-12-18T13:15:43;0.30;99.90
4526;DHT22;2275;52.208;8.804;2022-12-18T13:18:11;0.10;99.90
4526;DHT22;2275;52.208;8.804;2022-12-18T13:20:39;0.10;99.90
4526;DHT22;2275;52.208;8.804;2022-12-18T13:23:25;0.00;99.90
4526;DHT22;2275;52.208;8.804;2022-12-18T13:25:47;-0.10;99.90
4526;DHT22;2275;52.208;8.804;2022-12-18T13:28:14;-0.10;99.90
4526;DHT22;2275;52.208;8.804;2022-12-18T13:30:46;-0.20;99.90
4526;DHT22;2275;52.208;8.804;2022-12-18T13:33:36;-0.20;99.90
4526;DHT22;2275;52.208;8.804;2022-12-18T13:38:35;-0.20;99.90
4526;DHT22;2275;52.208;8.804;2022-12-18T13:43:50;-0.30;99.90
4526;DHT22;2275;52.208;8.804;2022-12-18T13:46:21;-0.30;99.90
4526;DHT22;2275;52.208;8.804;2022-12-18T13:48:50;-0.30;99.90
4526;DHT22;2275;52.208;8.804;2022-12-18T13:51:16;-0.40;99.90
4526;DHT22;2275;52.208;8.804;2022-12-18T13:53:44;-0.40;99.90
4526;DHT22;2275;52.208;8.804;2022-12-18T13:56:14;-0.40;99.90
4526;DHT22;2275;52.208;8.804;2022-12-18T13:58:37;-0.40;99.90
4526;DHT22;2275;52.208;8.804;2022-12-18T14:01:04;-0.40;99.90
4526;DHT22;2275;52.208;8.804;2022-12-18T14:03:31;-0.40;99.90
4526;DHT22;2275;52.208;8.804;2022-12-18T14:06:00;-0.50;99.90
4526;DHT22;2275;52.208;8.804;2022-12-18T14:08:27;-0.50;99.90
4526;DHT22;2275;52.208;8.804;2022-12-18T14:10:53;-0.50;99.90
4526;DHT22;2275;52.208;8.804;2022-12-18T14:13:24;-0.50;99.90
4526;DHT22;2275;52.208;8.804;2022-12-18T14:15:50;-0.40;99.90
4526;DHT22;2275;52.208;8.804;2022-12-18T14:18:24;-0.50;99.90
4526;DHT22;2275;52.208;8.804;2022-12-18T14:20:51;-0.50;99.90
4526;DHT22;2275;52.208;8.804;2022-12-18T14:23:27;-0.50;99.90
4526;DHT22;2275;52.208;8.804;2022-12-18T14:25:55;-0.50;99.90
4526;DHT22;2275;52.208;8.804;2022-12-18T14:28:22;-0.60;99.90
4526;DHT22;2275;52.208;8.804;2022-12-18T14:30:49;-0.50;99.90
4526;DHT22;2275;52.208;8.804;2022-12-18T14:33:20;-0.50;99.90
4526;DHT22;2275;52.208;8.804;2022-12-18T14:35:53;-0.50;99.90
4526;DHT22;2275;52.208;8.804;2022-12-18T14:38:26;-0.50;99.90
4526;DHT22;2275;52.208;8.804;2022-12-18T14:41:24;-0.50;99.90
4526;DHT22;2275;52.208;8.804;2022-12-18T14:43:36;-0.60;99.90
4526;DHT22;2275;52.208;8.804;2022-12-18T14:46:02;-0.60;99.90
4526;DHT22;2275;52.208;8.804;2022-12-18T14:51:21;-0.80;99.90
4526;DHT22;2275;52.208;8.804;2022-12-18T14:54:03;-0.90;99.90
4526;DHT22;2275;52.208;8.804;2022-12-18T14:56:32;-0.90;99.90
4526;DHT22;2275;52.208;8.804;2022-12-18T14:59:02;-0.90;99.90
4526;DHT22;2275;52.208;8.804;2022-12-18T15:01:33;-0.90;99.90
4526;DHT22;2275;52.208;8.804;2022-12-18T15:03:59;-0.90;99.90
4526;DHT22;2275;52.208;8.804;2022-12-18T15:06:31;-1.00;99.90
4526;DHT22;2275;52.208;8.804;2022-12-18T15:08:57;-1.00;99.90
4526;DHT22;2275;52.208;8.804;2022-12-18T15:11:28;-1.00;99.90
4526;DHT22;2275;52.208;8.804;2022-12-18T15:13:57;-1.00;99.90
4526;DHT22;2275;52.208;8.804;2022-12-18T15:16:23;-1.00;99.90
4526;DHT22;2275;52.208;8.804;2022-12-18T15:18:51;-1.00;99.90
4526;DHT22;2275;52.208;8.804;2022-12-18T15:21:18;-1.00;99.90
4526;DHT22;2275;52.208;8.804;2022-12-18T15:23:48;-0.90;99.90
4526;DHT22;2275;52.208;8.804;2022-12-18T15:26:15;-0.90;99.90
4526;DHT22;2275;52.208;8.804;2022-12-18T15:28:45;-0.90;99.90
4526;DHT22;2275;52.208;8.804;2022-12-18T15:31:31;-0.90;99.90
4526;DHT22;2275;52.208;8.804;2022-12-18T15:34:14;-0.80;99.90
4526;DHT22;2275;52.208;8.804;2022-12-18T15:36:40;-0.70;99.90
4526;DHT22;2275;52.208;8.804;2022-12-18T15:39:09;-0.70;99.90
4526;DHT22;2275;52.208;8.804;2022-12-18T15:41:36;-0.60;99.90
4526;DHT22;2275;52.208;8.804;2022-12-18T15:44:14;-0.40;99.90
4526;DHT22;2275;52.208;8.804;2022-12-18T15:46:30;-0.50;99.90
4526;DHT22;2275;52.208;8.804;2022-12-18T15:48:57;-0.50;99.90
4526;DHT22;2275;52.208;8.804;2022-12-18T15:51:25;-0.50;99.90
4526;DHT22;2275;52.208;8.804;2022-12-18T15:53:52;-0.60;99.90
4526;DHT22;2275;52.208;8.804;2022-12-18T15:56:18;-0.60;99.90
4526;DHT22;2275;52.208;8.804;2022-12-18T15:58:51;-0.70;99.90
4526;DHT22;2275;52.208;8.804;2022-12-18T16:01:18;-0.70;99.90
4526;DHT22;2275;52.208;8.804;2022-12-18T16:03:45;-0.70;99.90
4526;DHT22;2275;52.208;8.804;2022-12-18T16:06:13;-0.60;99.90
4526;DHT22;2275;52.208;8.804;2022-12-18T16:08:40;-0.60;99.90
4526;DHT22;2275;52.208;8.804;2022-12-18T16:11:13;-0.50;99.90
4526;DHT22;2275;52.208;8.804;2022-12-18T16:13:35;-0.40;99.90
4526;DHT22;2275;52.208;8.804;2022-12-18T16:16:02;-0.50;99.90
4526;DHT22;2275;52.208;8.804;2022-12-18T16:18:30;-0.30;99.90
4526;DHT22;2275;52.208;8.804;2022-12-18T16:20:57;-0.30;99.90
4526;DHT22;2275;52.208;8.804;2022-12-18T16:23:24;-0.30;99.90
4526;DHT22;2275;52.208;8.804;2022-12-18T16:26:07;-0.30;99.90
4526;DHT22;2275;52.208;8.804;2022-12-18T16:28:43;-0.10;99.90
4526;DHT22;2275;52.208;8.804;2022-12-18T16:31:10;0.00;99.90
4526;DHT22;2275;52.208;8.804;2022-12-18T16:33:37;0.10;99.90
4526;DHT22;2275;52.208;8.804;2022-12-18T16:36:04;0.30;99.90
4526;DHT22;2275;52.208;8.804;2022-12-18T16:38:31;0.30;99.90